createdAt,value
2022-08-07T00:01:44.754Z,2.72
2022-08-07T00:04:09.513Z,2.88
2022-08-07T00:06:51.267Z,2.67
2022-08-07T00:09:22.436Z,2.55
2022-08-07T00:11:55.271Z,3.08
2022-08-07T00:14:30.241Z,3.58
2022-08-07T00:17:01.957Z,2.80
2022-08-07T00:20:00.581Z,2.83
2022-08-07T00:22:34.547Z,2.78
2022-08-07T00:25:05.662Z,2.88
2022-08-07T00:27:51.964Z,3.08
2022-08-07T00:30:27.426Z,3.60
2022-08-07T00:35:27.084Z,3.25
2022-08-07T00:37:58.562Z,3.10
2022-08-07T00:40:36.717Z,3.28
2022-08-07T00:43:10.829Z,2.90
2022-08-07T00:45:58.305Z,2.92
2022-08-07T00:48:31.903Z,3.53
2022-08-07T00:51:02.564Z,3.50
2022-08-07T00:53:39.019Z,3.17
2022-08-07T00:56:18.513Z,3.10
2022-08-07T00:58:46.792Z,3.60
2022-08-07T01:01:16.312Z,2.85
2022-08-07T01:03:57.350Z,3.72
2022-08-07T01:06:30.147Z,2.70
2022-08-07T01:09:00.720Z,2.70
2022-08-07T01:12:23.865Z,3.50
2022-08-07T01:14:21.449Z,2.78
2022-08-07T01:16:59.061Z,3.63
2022-08-07T01:19:32.515Z,3.22
2022-08-07T01:22:08.865Z,3.53
2022-08-07T01:24:47.448Z,3.25
2022-08-07T01:27:19.668Z,2.97
2022-08-07T01:29:48.276Z,3.10
2022-08-07T01:32:18.929Z,3.67
2022-08-07T01:34:49.150Z,3.70
2022-08-07T01:37:19.189Z,2.80
2022-08-07T01:39:48.850Z,3.10
2022-08-07T01:42:39.442Z,3.13
2022-08-07T01:45:09.822Z,3.30
2022-08-07T01:48:19.415Z,3.20
2022-08-07T01:50:33.893Z,3.75
2022-08-07T01:53:08.966Z,2.90
2022-08-07T01:55:45.560Z,3.60
2022-08-07T01:58:28.953Z,3.35
2022-08-07T02:01:09.953Z,3.15
2022-08-07T02:04:00.596Z,3.65
2022-08-07T02:06:32.630Z,3.45
2022-08-07T02:09:06.928Z,3.28
2022-08-07T02:12:02.820Z,3.40
2022-08-07T02:14:36.606Z,3.10
2022-08-07T02:17:11.149Z,3.85
2022-08-07T02:20:05.660Z,3.70
2022-08-07T02:22:34.853Z,3.17
2022-08-07T02:25:13.903Z,3.78
2022-08-07T02:27:51.985Z,4.03
2022-08-07T02:30:21.173Z,3.05
2022-08-07T02:33:08.985Z,2.92
2022-08-07T02:36:30.820Z,3.42
2022-08-07T02:38:33.092Z,3.10
2022-08-07T02:41:04.290Z,3.33
2022-08-07T02:43:34.625Z,3.28
2022-08-07T02:46:05.432Z,3.42
2022-08-07T02:48:34.496Z,3.58
2022-08-07T02:51:14.415Z,3.47
2022-08-07T02:54:02.614Z,3.05
2022-08-07T02:56:34.879Z,3.72
2022-08-07T02:59:09.985Z,3.38
2022-08-07T03:01:40.815Z,3.25
2022-08-07T03:04:12.470Z,3.22
2022-08-07T03:06:44.830Z,3.33
2022-08-07T03:09:14.711Z,3.60
2022-08-07T03:12:05.438Z,3.35
2022-08-07T03:14:36.131Z,2.90
2022-08-07T03:17:08.833Z,3.40
2022-08-07T03:19:37.616Z,3.15
2022-08-07T03:22:07.706Z,3.80
2022-08-07T03:24:47.512Z,3.63
2022-08-07T03:27:30.441Z,3.13
2022-08-07T03:30:00.714Z,3.38
2022-08-07T03:32:38.736Z,3.38
2022-08-07T03:35:17.501Z,3.30
2022-08-07T03:37:55.190Z,2.97
2022-08-07T03:40:27.500Z,2.97
2022-08-07T03:43:02.289Z,3.88
2022-08-07T03:45:31.691Z,3.17
2022-08-07T03:48:01.325Z,3.30
2022-08-07T03:50:30.528Z,3.33
2022-08-07T03:53:00.694Z,3.50
2022-08-07T03:55:42.814Z,3.53
2022-08-07T03:59:05.574Z,3.50
2022-08-07T04:01:11.981Z,3.53
2022-08-07T04:03:53.538Z,3.03
2022-08-07T04:06:36.388Z,2.92
2022-08-07T04:09:11.758Z,3.47
2022-08-07T04:12:27.462Z,3.45
2022-08-07T04:14:38.592Z,3.15
2022-08-07T04:17:16.388Z,3.25
2022-08-07T04:19:54.419Z,3.05
2022-08-07T04:22:27.440Z,3.22
2022-08-07T04:25:01.693Z,3.70
2022-08-07T04:27:35.580Z,3.53
2022-08-07T04:30:21.377Z,2.92
2022-08-07T04:32:58.931Z,4.00
2022-08-07T04:35:27.294Z,2.95
2022-08-07T04:38:06.375Z,3.58
2022-08-07T04:40:35.135Z,3.17
2022-08-07T04:43:03.714Z,3.88
2022-08-07T04:46:00.900Z,3.03
2022-08-07T04:48:44.651Z,3.10
2022-08-07T04:51:27.572Z,3.47
2022-08-07T04:54:06.462Z,2.70
2022-08-07T04:58:10.523Z,3.47
2022-08-07T05:00:14.637Z,3.05
2022-08-07T05:02:43.701Z,2.75
2022-08-07T05:05:53.255Z,2.85
2022-08-07T05:08:19.332Z,3.33
2022-08-07T05:11:19.497Z,3.17
2022-08-07T05:16:47.566Z,3.00
2022-08-07T05:19:44.158Z,3.30
2022-08-07T05:22:26.771Z,3.25
2022-08-07T05:24:59.689Z,3.17
2022-08-07T05:28:03.030Z,3.13
2022-08-07T05:30:29.978Z,3.28
2022-08-07T05:33:02.555Z,3.10
2022-08-07T05:35:41.706Z,3.28
2022-08-07T05:38:13.086Z,3.40
2022-08-07T05:41:02.206Z,3.10
2022-08-07T05:43:49.693Z,3.65
2022-08-07T05:46:30.063Z,3.03
2022-08-07T05:49:00.192Z,3.20
2022-08-07T05:51:31.791Z,2.88
2022-08-07T05:54:09.648Z,2.88
2022-08-07T05:56:43.717Z,3.17
2022-08-07T05:59:18.295Z,2.92
2022-08-07T06:01:48.900Z,3.17
2022-08-07T06:04:20.621Z,3.38
2022-08-07T06:06:56.495Z,2.95
2022-08-07T06:10:03.812Z,2.70
2022-08-07T06:12:20.969Z,3.58
2022-08-07T06:14:49.941Z,3.13
2022-08-07T06:17:22.419Z,3.13
2022-08-07T06:20:03.828Z,3.67
2022-08-07T06:22:40.221Z,3.00
2022-08-07T06:25:10.265Z,3.83
2022-08-07T06:27:59.768Z,3.80
2022-08-07T06:30:36.059Z,2.83
2022-08-07T06:33:09.736Z,3.15
2022-08-07T06:35:48.025Z,3.63
2022-08-07T06:38:33.198Z,3.13
2022-08-07T06:41:09.822Z,3.42
2022-08-07T06:43:46.680Z,3.03
2022-08-07T06:46:31.402Z,3.50
2022-08-07T06:49:04.336Z,3.40
2022-08-07T06:51:49.661Z,3.03
2022-08-07T06:55:31.345Z,3.50
2022-08-07T06:57:10.576Z,3.03
2022-08-07T07:00:11.913Z,3.60
2022-08-07T07:02:48.500Z,3.13
2022-08-07T07:06:04.789Z,2.95
2022-08-07T07:08:18.819Z,3.38
2022-08-07T07:10:57.480Z,2.63
2022-08-07T07:13:56.636Z,3.97
2022-08-07T07:16:30.730Z,3.10
2022-08-07T07:19:54.622Z,3.08
2022-08-07T07:22:04.939Z,2.65
2022-08-07T07:24:56.630Z,3.08
2022-08-07T07:27:35.767Z,3.15
2022-08-07T07:30:37.864Z,3.05
2022-08-07T07:33:11.975Z,2.97
2022-08-07T07:36:03.901Z,2.92
2022-08-07T07:38:34.918Z,3.20
2022-08-07T07:41:08.762Z,3.38
2022-08-07T07:43:48.038Z,3.47
2022-08-07T07:46:55.774Z,3.00
2022-08-07T07:50:32.445Z,3.20
2022-08-07T07:52:18.816Z,3.50
2022-08-07T07:54:51.031Z,3.47
2022-08-07T07:57:44.008Z,3.28
2022-08-07T08:00:29.136Z,3.50
2022-08-07T08:05:42.872Z,3.05
2022-08-07T08:08:35.015Z,4.10
2022-08-07T08:11:08.651Z,3.50
2022-08-07T08:13:54.780Z,3.38
2022-08-07T08:16:35.043Z,3.55
2022-08-07T08:19:17.756Z,3.45
2022-08-07T08:22:17.472Z,3.80
2022-08-07T08:25:42.018Z,3.50
2022-08-07T08:28:23.902Z,2.72
2022-08-07T08:31:15.609Z,3.45
2022-08-07T08:33:50.054Z,3.50
2022-08-07T08:36:30.477Z,3.42
2022-08-07T08:39:02.765Z,4.18
2022-08-07T08:41:58.475Z,3.63
2022-08-07T08:44:44.316Z,3.67
2022-08-07T08:47:25.603Z,3.53
2022-08-07T08:50:10.912Z,3.55
2022-08-07T08:52:54.321Z,3.33
2022-08-07T08:55:53.812Z,3.55
2022-08-07T08:58:36.728Z,3.00
2022-08-07T09:01:18.628Z,3.38
2022-08-07T09:03:59.570Z,3.63
2022-08-07T09:06:54.554Z,3.35
2022-08-07T09:09:48.004Z,3.10
2022-08-07T09:12:53.265Z,3.22
2022-08-07T09:16:23.678Z,3.67
2022-08-07T09:18:58.453Z,3.40
2022-08-07T09:21:58.129Z,3.42
2022-08-07T09:24:59.305Z,3.20
2022-08-07T09:27:38.384Z,3.53
2022-08-07T09:30:28.254Z,3.42
2022-08-07T09:33:16.426Z,3.65
2022-08-07T09:36:05.732Z,3.30
2022-08-07T09:38:50.151Z,3.70
2022-08-07T09:41:43.175Z,3.80
2022-08-07T09:47:20.071Z,3.00
2022-08-07T09:48:01.674Z,3.22
2022-08-07T09:50:47.427Z,2.83
2022-08-07T09:53:23.406Z,2.90
2022-08-07T09:56:41.796Z,3.15
2022-08-07T09:59:46.711Z,3.08
2022-08-07T10:02:55.671Z,3.08
2022-08-07T10:06:00.306Z,3.15
2022-08-07T10:09:08.276Z,3.33
2022-08-07T10:12:15.152Z,3.10
2022-08-07T10:15:26.827Z,3.10
2022-08-07T10:19:00.597Z,3.60
2022-08-07T10:22:12.216Z,3.35
2022-08-07T10:24:52.004Z,2.88
2022-08-07T10:27:47.530Z,3.80
2022-08-07T10:30:26.526Z,3.30
2022-08-07T10:34:05.707Z,3.75
2022-08-07T10:36:36.417Z,3.13
2022-08-07T10:39:57.221Z,3.25
2022-08-07T10:42:41.016Z,2.75
2022-08-07T10:45:57.677Z,3.30
2022-08-07T10:48:34.871Z,3.03
2022-08-07T10:51:16.574Z,3.22
2022-08-07T10:54:13.917Z,3.40
2022-08-07T10:57:02.438Z,3.10
2022-08-07T11:00:09.778Z,3.03
2022-08-07T11:03:11.150Z,3.13
2022-08-07T11:05:55.837Z,2.75
2022-08-07T11:08:39.044Z,3.53
2022-08-07T11:11:12.982Z,3.15
2022-08-07T11:14:56.834Z,3.45
2022-08-07T11:16:51.299Z,2.95
2022-08-07T11:19:34.751Z,3.33
2022-08-07T11:22:26.379Z,3.00
2022-08-07T11:25:10.069Z,3.13
2022-08-07T11:28:02.572Z,2.90
2022-08-07T11:30:46.483Z,2.97
2022-08-07T11:33:53.876Z,2.78
2022-08-07T11:36:38.976Z,3.40
2022-08-07T11:39:23.708Z,3.30
2022-08-07T11:44:59.593Z,2.88
2022-08-07T11:47:56.280Z,3.10
2022-08-07T11:50:56.376Z,3.15
2022-08-07T11:54:01.791Z,2.80
2022-08-07T11:56:56.264Z,2.72
2022-08-07T12:00:10.683Z,2.55
2022-08-07T12:03:44.910Z,3.20
2022-08-07T12:06:40.529Z,2.58
2022-08-07T12:09:34.963Z,2.47
2022-08-07T12:14:56.070Z,2.53
2022-08-07T12:17:39.668Z,3.03
2022-08-07T12:20:30.899Z,2.90
2022-08-07T12:24:06.807Z,2.53
2022-08-07T12:26:46.649Z,2.72
2022-08-07T12:29:37.222Z,2.65
2022-08-07T12:32:18.420Z,2.47
2022-08-07T12:34:49.666Z,2.80
2022-08-07T12:37:28.482Z,2.78
2022-08-07T12:40:44.075Z,2.88
2022-08-07T12:43:10.394Z,2.47
2022-08-07T12:45:52.712Z,2.63
2022-08-07T12:48:52.036Z,2.58
2022-08-07T12:51:46.584Z,2.50
2022-08-07T12:54:38.423Z,2.58
2022-08-07T12:57:11.798Z,2.65
2022-08-07T12:59:55.428Z,2.90
2022-08-07T13:02:58.754Z,2.38
2022-08-07T13:06:04.737Z,2.58
2022-08-07T13:08:57.061Z,2.45
2022-08-07T13:12:03.332Z,2.28
2022-08-07T13:14:51.046Z,2.20
2022-08-07T13:17:40.995Z,2.65
2022-08-07T13:20:19.678Z,2.45
2022-08-07T13:23:03.809Z,2.53
2022-08-07T13:25:50.574Z,2.40
2022-08-07T13:28:29.135Z,2.35
2022-08-07T13:31:13.101Z,2.40
2022-08-07T13:34:31.337Z,1.93
2022-08-07T13:36:46.542Z,2.53
2022-08-07T13:39:28.416Z,2.00
2022-08-07T13:42:24.780Z,2.42
2022-08-07T13:45:20.973Z,2.25
2022-08-07T13:48:05.940Z,2.53
2022-08-07T13:50:45.309Z,2.63
2022-08-07T13:53:59.830Z,2.38
2022-08-07T13:56:36.171Z,2.35
2022-08-07T13:59:15.526Z,2.72
2022-08-07T14:02:03.616Z,2.80
2022-08-07T14:04:49.687Z,2.08
2022-08-07T14:07:23.071Z,2.25
2022-08-07T14:10:01.490Z,2.58
2022-08-07T14:12:54.206Z,3.17
2022-08-07T14:15:35.013Z,2.90
2022-08-07T14:18:27.296Z,2.45
2022-08-07T14:21:20.961Z,2.75
2022-08-07T14:24:07.466Z,2.78
2022-08-07T14:26:50.433Z,2.80
2022-08-07T14:30:05.354Z,2.60
2022-08-07T14:32:19.249Z,2.75
2022-08-07T14:34:49.367Z,2.33
2022-08-07T14:37:36.512Z,2.45
2022-08-07T14:40:26.776Z,2.95
2022-08-07T14:45:52.493Z,2.95
2022-08-07T14:48:28.595Z,2.88
2022-08-07T14:51:07.231Z,3.17
2022-08-07T14:54:08.661Z,2.72
2022-08-07T14:56:41.160Z,2.60
2022-08-07T15:00:03.550Z,2.92
2022-08-07T15:02:34.312Z,2.80
2022-08-07T15:05:02.145Z,3.05
2022-08-07T15:07:47.394Z,3.33
2022-08-07T15:13:22.351Z,3.25
2022-08-07T15:16:00.956Z,3.17
2022-08-07T15:18:36.835Z,2.90
2022-08-07T15:27:11.132Z,2.67
2022-08-07T15:30:08.408Z,2.63
2022-08-07T15:36:02.590Z,2.63
2022-08-07T15:38:30.502Z,2.78
2022-08-07T15:41:24.236Z,2.75
2022-08-07T15:44:07.219Z,3.20
2022-08-07T15:52:29.663Z,2.42
2022-08-07T15:55:02.786Z,2.40
2022-08-07T15:57:48.139Z,2.22
2022-08-07T16:00:22.786Z,2.40
2022-08-07T16:03:20.498Z,2.33
2022-08-07T16:05:52.514Z,2.30
2022-08-07T16:08:31.867Z,2.28
2022-08-07T16:11:26.762Z,2.40
2022-08-07T16:14:10.131Z,2.13
2022-08-07T16:17:13.085Z,2.00
2022-08-07T16:22:54.865Z,2.17
2022-08-07T16:25:54.891Z,2.45
2022-08-07T16:30:07.247Z,2.33
2022-08-07T16:31:50.392Z,1.92
2022-08-07T16:34:33.800Z,2.50
2022-08-07T16:38:04.633Z,2.67
2022-08-07T16:41:04.248Z,1.95
2022-08-07T16:44:08.645Z,1.85
2022-08-07T16:47:17.223Z,2.83
2022-08-07T16:50:35.371Z,2.20
2022-08-07T16:54:02.907Z,2.20
2022-08-07T16:56:24.184Z,2.45
2022-08-07T17:02:00.097Z,2.15
2022-08-07T17:04:57.711Z,2.38
2022-08-07T17:07:55.248Z,2.15
2022-08-07T17:10:38.299Z,2.30
2022-08-07T17:14:04.319Z,2.50
2022-08-07T17:16:43.835Z,2.55
2022-08-07T17:20:02.485Z,2.58
2022-08-07T17:22:29.996Z,2.33
2022-08-07T17:25:16.606Z,2.17
2022-08-07T17:27:59.167Z,2.20
2022-08-07T17:30:57.470Z,2.40
2022-08-07T17:34:08.989Z,2.83
2022-08-07T17:36:26.123Z,2.15
2022-08-07T17:39:10.058Z,2.05
2022-08-07T17:42:03.010Z,2.45
2022-08-07T17:44:50.041Z,1.90
2022-08-07T17:47:42.350Z,2.42
2022-08-07T17:50:21.489Z,2.30
2022-08-07T17:52:59.600Z,2.80
2022-08-07T17:55:55.601Z,2.42
2022-08-07T17:58:36.491Z,2.70
2022-08-07T18:01:20.718Z,2.40
2022-08-07T18:04:16.046Z,2.42
2022-08-07T18:06:58.197Z,2.20
2022-08-07T18:10:06.231Z,2.38
2022-08-07T18:13:06.683Z,2.40
2022-08-07T18:15:55.737Z,2.35
2022-08-07T18:19:02.452Z,2.03
2022-08-07T18:21:51.572Z,2.15
2022-08-07T18:27:38.547Z,2.28
2022-08-07T18:30:31.376Z,2.20
2022-08-07T18:33:54.918Z,2.60
2022-08-07T18:36:45.055Z,2.22
2022-08-07T18:40:08.819Z,2.40
2022-08-07T18:42:55.917Z,2.35
2022-08-07T18:46:20.305Z,2.50
2022-08-07T18:50:31.693Z,2.50
2022-08-07T18:52:51.729Z,2.10
2022-08-07T18:54:50.847Z,2.25
2022-08-07T18:57:40.243Z,2.55
2022-08-07T19:00:32.720Z,2.53
2022-08-07T19:03:11.810Z,2.47
2022-08-07T19:06:02.787Z,2.50
2022-08-07T19:08:58.471Z,2.50
2022-08-07T19:12:03.899Z,1.92
2022-08-07T19:15:02.261Z,2.72
2022-08-07T19:18:11.456Z,3.15
2022-08-07T19:21:09.022Z,2.40
2022-08-07T19:23:59.231Z,2.35
2022-08-07T19:27:01.946Z,2.85
2022-08-07T19:31:04.681Z,2.75
2022-08-07T19:32:25.914Z,2.80
2022-08-07T19:35:01.216Z,2.20
2022-08-07T19:37:56.272Z,2.92
2022-08-07T19:40:31.505Z,2.08
2022-08-07T19:43:10.729Z,2.50
2022-08-07T19:46:05.565Z,2.40
2022-08-07T19:48:43.056Z,2.58
2022-08-07T19:51:20.001Z,2.45
2022-08-07T19:54:31.284Z,2.20
2022-08-07T19:58:02.455Z,2.50
2022-08-07T19:59:43.483Z,3.35
2022-08-07T20:02:19.533Z,2.67
2022-08-07T20:04:53.644Z,2.90
2022-08-07T20:07:47.219Z,2.28
2022-08-07T20:10:38.431Z,2.33
2022-08-07T20:13:23.925Z,2.45
2022-08-07T20:15:58.191Z,2.00
2022-08-07T20:18:32.945Z,2.60
2022-08-07T20:21:14.790Z,2.33
2022-08-07T20:24:00.095Z,2.40
2022-08-07T20:26:44.843Z,2.70
2022-08-07T20:29:48.934Z,2.45
2022-08-07T20:32:22.628Z,2.15
2022-08-07T20:34:59.253Z,2.00
2022-08-07T20:40:33.024Z,2.83
2022-08-07T20:42:59.262Z,2.53
2022-08-07T20:45:32.889Z,2.93
2022-08-07T20:48:29.698Z,2.53
2022-08-07T20:51:01.096Z,2.40
2022-08-07T20:54:04.819Z,2.92
2022-08-07T20:56:26.388Z,2.80
2022-08-07T20:59:03.414Z,2.35
2022-08-07T21:01:36.604Z,2.25
2022-08-07T21:04:30.798Z,2.25
2022-08-07T21:07:04.461Z,2.40
2022-08-07T21:09:52.920Z,2.30
2022-08-07T21:12:35.160Z,2.20
2022-08-07T21:15:18.698Z,2.63
2022-08-07T21:18:02.675Z,2.50
2022-08-07T21:20:35.947Z,2.78
2022-08-07T21:23:15.433Z,2.13
2022-08-07T21:26:04.481Z,2.67
2022-08-07T21:28:50.344Z,2.42
2022-08-07T21:32:42.914Z,2.45
2022-08-07T21:34:33.593Z,2.25
2022-08-07T21:37:12.320Z,2.42
2022-08-07T21:39:56.572Z,2.60
2022-08-07T21:42:48.326Z,2.40
2022-08-07T21:46:09.131Z,2.45
2022-08-07T21:48:33.581Z,2.47
2022-08-07T21:51:19.797Z,2.65
2022-08-07T21:53:56.014Z,2.72
2022-08-07T21:56:48.096Z,2.35
2022-08-07T22:00:02.789Z,2.38
2022-08-07T22:02:35.037Z,2.33
2022-08-07T22:05:08.760Z,2.00
2022-08-07T22:07:58.642Z,2.00
2022-08-07T22:10:35.391Z,2.28
2022-08-07T22:13:09.283Z,2.60
2022-08-07T22:16:44.187Z,2.10
2022-08-07T22:18:43.033Z,1.80
2022-08-07T22:21:20.564Z,2.28
2022-08-07T22:23:55.831Z,1.80
2022-08-07T22:26:31.457Z,2.08
2022-08-07T22:29:09.666Z,1.70
2022-08-07T22:32:06.190Z,2.10
2022-08-07T22:34:53.357Z,2.15
2022-08-07T22:38:03.888Z,1.83
2022-08-07T22:40:37.002Z,1.52
2022-08-07T22:43:13.224Z,2.08
2022-08-07T22:46:40.647Z,1.92
2022-08-07T22:49:33.844Z,1.90
2022-08-07T22:52:45.848Z,2.47
2022-08-07T22:55:43.014Z,1.92
2022-08-07T22:58:38.045Z,1.90
2022-08-07T23:01:49.966Z,2.30
2022-08-07T23:04:56.968Z,1.88
2022-08-07T23:07:57.643Z,1.65
2022-08-07T23:10:42.373Z,1.80
2022-08-07T23:13:48.653Z,1.70
2022-08-07T23:17:04.118Z,1.98
2022-08-07T23:20:18.106Z,2.00
2022-08-07T23:24:05.855Z,2.10
2022-08-07T23:26:25.206Z,2.10
2022-08-07T23:30:35.635Z,2.25
2022-08-07T23:34:23.216Z,2.50
2022-08-07T23:35:55.564Z,2.05
2022-08-07T23:38:47.166Z,2.78
2022-08-07T23:42:01.666Z,2.20
2022-08-07T23:45:03.037Z,2.47
2022-08-07T23:48:04.701Z,2.50
2022-08-07T23:50:40.209Z,1.70
2022-08-07T23:53:49.778Z,1.75
2022-08-07T23:56:27.497Z,1.63
